Terminal Aerodrome Forecast
Issued by NWS

Home | Current Version | Previous Version | Text Only | Print | Product List | Glossary On
Versions: 1 2 3 4 5 6 7 8 9 10 11 12 13 14 15 16 17 18 19 20 21 22 23 24 25 26 27 28
000
FTPA31 PHFO 290500
TAFLIH
TAF
PHLI 290531Z 2906/3006 05009KT P6SM SCT025 SCT040
      TEMPO 2906/2908 BKN018 BKN030
     FM292000 05012KT P6SM SCT025 SCT040=

USA.gov is the U.S. government's official web portal to all federal, state and local government web resources and services.